createdAt,value
2017-08-05T00:00:57.186Z,83
2017-08-05T00:01:57.908Z,83
2017-08-05T00:02:58.646Z,83
2017-08-05T00:03:59.363Z,83
2017-08-05T00:05:00.083Z,83
2017-08-05T00:06:00.805Z,83
2017-08-05T00:07:01.524Z,84
2017-08-05T00:08:02.269Z,84
2017-08-05T00:09:03.028Z,84
2017-08-05T00:10:03.731Z,83
2017-08-05T00:11:04.454Z,84
2017-08-05T00:12:05.186Z,84
2017-08-05T00:13:05.905Z,84
2017-08-05T00:14:06.629Z,84
2017-08-05T00:15:07.348Z,84
2017-08-05T00:16:08.093Z,84
2017-08-05T00:17:08.813Z,84
2017-08-05T00:18:09.533Z,84
2017-08-05T00:19:10.247Z,84
2017-08-05T00:20:10.969Z,85
2017-08-05T00:21:11.683Z,84
2017-08-05T00:22:12.404Z,85
2017-08-05T00:23:13.121Z,85
2017-08-05T00:24:13.840Z,84
2017-08-05T00:25:14.561Z,85
2017-08-05T00:26:15.277Z,84
2017-08-05T00:27:15.995Z,84
2017-08-05T00:28:16.711Z,83
2017-08-05T00:29:17.432Z,84
2017-08-05T00:30:18.149Z,84
2017-08-05T00:31:18.866Z,84
2017-08-05T00:32:19.584Z,84
2017-08-05T00:33:20.305Z,84
2017-08-05T00:34:21.045Z,84
2017-08-05T00:35:21.789Z,83
2017-08-05T00:36:22.505Z,84
2017-08-05T00:37:23.230Z,84
2017-08-05T00:38:23.968Z,85
2017-08-05T00:39:24.690Z,84
2017-08-05T00:40:25.432Z,84
2017-08-05T00:41:26.155Z,83
2017-08-05T00:42:26.892Z,84
2017-08-05T00:43:27.617Z,85
2017-08-05T00:44:28.333Z,84
2017-08-05T00:45:29.053Z,85
2017-08-05T00:46:29.769Z,84
2017-08-05T00:47:30.487Z,85
2017-08-05T00:48:31.227Z,85
2017-08-05T00:49:31.953Z,84
2017-08-05T00:50:32.662Z,85
2017-08-05T00:51:33.384Z,84
2017-08-05T00:52:34.101Z,85
2017-08-05T00:53:34.835Z,84
2017-08-05T00:54:35.570Z,85
2017-08-05T00:55:36.285Z,85
2017-08-05T00:56:37.010Z,85
2017-08-05T00:57:37.751Z,85
2017-08-05T00:58:38.470Z,86
2017-08-05T00:59:39.187Z,85
2017-08-05T01:00:39.923Z,85
2017-08-05T01:01:40.641Z,86
2017-08-05T01:02:41.366Z,86
2017-08-05T01:03:42.085Z,85
2017-08-05T01:04:42.804Z,86
2017-08-05T01:05:43.518Z,86
2017-08-05T01:06:44.241Z,85
2017-08-05T01:07:44.957Z,86
2017-08-05T01:08:45.683Z,86
2017-08-05T01:09:46.397Z,85
2017-08-05T01:10:47.111Z,85
2017-08-05T01:11:47.830Z,85
2017-08-05T01:12:48.551Z,86
2017-08-05T01:13:49.268Z,86
2017-08-05T01:14:50.011Z,86
2017-08-05T01:15:50.731Z,86
2017-08-05T01:16:51.451Z,85
2017-08-05T01:17:52.171Z,86
2017-08-05T01:18:52.891Z,86
2017-08-05T01:19:53.611Z,87
2017-08-05T01:20:54.326Z,86
2017-08-05T01:21:55.066Z,86
2017-08-05T01:22:55.787Z,87
2017-08-05T01:23:56.527Z,86
2017-08-05T01:24:57.240Z,86
2017-08-05T01:25:57.966Z,86
2017-08-05T01:26:58.680Z,86
2017-08-05T01:27:59.416Z,85
2017-08-05T01:29:00.135Z,84
2017-08-05T01:30:00.858Z,85
2017-08-05T01:31:01.578Z,85
2017-08-05T01:32:02.293Z,86
2017-08-05T01:33:03.036Z,84
2017-08-05T01:34:03.753Z,85
2017-08-05T01:35:04.473Z,85
2017-08-05T01:36:05.438Z,86
2017-08-05T01:37:06.161Z,85
2017-08-05T01:38:06.879Z,85
2017-08-05T01:39:07.619Z,84
2017-08-05T01:40:08.360Z,85
2017-08-05T01:41:09.082Z,85
2017-08-05T01:42:09.795Z,84
2017-08-05T01:43:10.513Z,85
2017-08-05T01:44:11.234Z,85
2017-08-05T01:45:11.951Z,84
2017-08-05T01:46:12.668Z,85
2017-08-05T01:47:13.407Z,85
2017-08-05T01:48:14.126Z,85
2017-08-05T01:49:14.845Z,86
2017-08-05T01:50:15.590Z,85
2017-08-05T01:51:16.306Z,86
2017-08-05T01:52:17.027Z,85
2017-08-05T01:53:17.745Z,85
2017-08-05T01:54:18.463Z,85
2017-08-05T01:55:19.184Z,85
2017-08-05T01:56:19.900Z,87
2017-08-05T01:57:20.616Z,86
2017-08-05T01:58:21.358Z,86
2017-08-05T01:59:22.076Z,86
2017-08-05T02:00:22.794Z,86
2017-08-05T02:01:23.536Z,86
2017-08-05T02:02:24.250Z,86
2017-08-05T02:03:24.990Z,88
2017-08-05T02:04:25.707Z,87
2017-08-05T02:05:26.428Z,88
2017-08-05T02:06:27.147Z,87
2017-08-05T02:07:27.867Z,87
2017-08-05T02:08:28.588Z,87
2017-08-05T02:09:29.310Z,87
2017-08-05T02:10:30.030Z,87
2017-08-05T02:11:30.768Z,87
2017-08-05T02:12:31.508Z,87
2017-08-05T02:13:32.248Z,87
2017-08-05T02:14:32.967Z,88
2017-08-05T02:15:33.682Z,88
2017-08-05T02:16:34.399Z,87
2017-08-05T02:17:35.115Z,88
2017-08-05T02:18:35.834Z,88
2017-08-05T02:19:36.554Z,88
2017-08-05T02:20:37.271Z,88
2017-08-05T02:21:37.989Z,88
2017-08-05T02:22:38.708Z,88
2017-08-05T02:23:39.426Z,88
2017-08-05T02:24:40.169Z,89
2017-08-05T02:25:40.890Z,88
2017-08-05T02:26:41.628Z,88
2017-08-05T02:27:42.345Z,89
2017-08-05T02:28:43.064Z,88
2017-08-05T02:29:43.780Z,88
2017-08-05T02:30:44.500Z,88
2017-08-05T02:31:45.224Z,89
2017-08-05T02:32:45.947Z,89
2017-08-05T02:33:46.658Z,89
2017-08-05T02:34:47.378Z,89
2017-08-05T02:35:48.095Z,89
2017-08-05T02:36:48.811Z,89
2017-08-05T02:37:49.539Z,89
2017-08-05T02:38:50.259Z,89
2017-08-05T02:39:50.971Z,89
2017-08-05T02:40:51.693Z,89
2017-08-05T02:41:52.412Z,89
2017-08-05T02:42:53.135Z,88
2017-08-05T02:43:53.846Z,88
2017-08-05T02:44:54.588Z,88
2017-08-05T02:45:55.326Z,88
2017-08-05T02:46:56.045Z,88
2017-08-05T02:47:56.786Z,88
2017-08-05T02:48:57.509Z,89
2017-08-05T02:49:58.227Z,89
2017-08-05T02:50:58.944Z,89
2017-08-05T02:51:59.681Z,88
2017-08-05T02:53:00.384Z,88
2017-08-05T02:54:01.100Z,89
2017-08-05T02:55:01.841Z,89
2017-08-05T02:56:02.560Z,89
2017-08-05T02:57:03.300Z,90
2017-08-05T02:58:04.020Z,90
2017-08-05T02:59:04.759Z,89
2017-08-05T03:00:05.479Z,89
2017-08-05T03:01:06.198Z,89
2017-08-05T03:02:06.914Z,89
2017-08-05T03:03:07.637Z,89
2017-08-05T03:04:08.354Z,89
2017-08-05T03:05:09.071Z,90
2017-08-05T03:06:09.791Z,90
2017-08-05T03:07:10.510Z,90
2017-08-05T03:08:11.255Z,90
2017-08-05T03:09:11.992Z,90
2017-08-05T03:10:12.710Z,90
2017-08-05T03:11:13.427Z,90
2017-08-05T03:12:14.169Z,90
2017-08-05T03:13:14.887Z,90
2017-08-05T03:14:15.606Z,90
2017-08-05T03:15:16.321Z,90
2017-08-05T03:16:17.047Z,90
2017-08-05T03:17:17.759Z,90
2017-08-05T03:18:18.480Z,90
2017-08-05T03:19:19.196Z,90
2017-08-05T03:20:19.915Z,90
2017-08-05T03:21:20.637Z,90
2017-08-05T03:22:21.373Z,90
2017-08-05T03:23:22.091Z,89
2017-08-05T03:24:22.810Z,89
2017-08-05T03:25:23.532Z,88
2017-08-05T03:26:24.252Z,90
2017-08-05T03:27:24.972Z,89
2017-08-05T03:28:25.689Z,89
2017-08-05T03:29:26.406Z,88
2017-08-05T03:30:27.121Z,89
2017-08-05T03:31:27.843Z,88
2017-08-05T03:32:28.560Z,88
2017-08-05T03:33:29.297Z,88
2017-08-05T03:34:30.015Z,88
2017-08-05T03:35:30.734Z,88
2017-08-05T03:36:31.478Z,88
2017-08-05T03:37:32.196Z,88
2017-08-05T03:38:32.913Z,88
2017-08-05T03:39:33.631Z,89
2017-08-05T03:40:34.371Z,89
2017-08-05T03:41:35.091Z,89
2017-08-05T03:42:35.809Z,89
2017-08-05T03:43:36.526Z,89
2017-08-05T03:44:37.270Z,89
2017-08-05T03:45:37.991Z,89
2017-08-05T03:46:38.709Z,89
2017-08-05T03:47:39.429Z,89
2017-08-05T03:48:40.153Z,89
2017-08-05T03:49:40.869Z,89
2017-08-05T03:50:41.593Z,88
2017-08-05T03:51:42.331Z,89
2017-08-05T03:52:43.052Z,89
2017-08-05T03:53:43.769Z,88
2017-08-05T03:54:44.487Z,88
2017-08-05T03:55:45.208Z,89
2017-08-05T03:56:45.931Z,89
2017-08-05T03:57:46.648Z,89
2017-08-05T03:58:47.372Z,89
2017-08-05T03:59:48.092Z,89
2017-08-05T04:00:48.812Z,88
2017-08-05T04:01:49.530Z,89
2017-08-05T04:02:50.273Z,88
2017-08-05T04:03:51.020Z,88
2017-08-05T04:04:51.764Z,88
2017-08-05T04:05:52.503Z,89
2017-08-05T04:06:53.224Z,88
2017-08-05T04:07:53.951Z,89
2017-08-05T04:08:54.692Z,89
2017-08-05T04:09:55.441Z,89
2017-08-05T04:10:56.183Z,89
2017-08-05T04:11:56.905Z,88
2017-08-05T04:12:57.627Z,88
2017-08-05T04:13:58.349Z,89
2017-08-05T04:14:59.070Z,89
2017-08-05T04:15:59.794Z,89
2017-08-05T04:17:00.510Z,88
2017-08-05T04:18:01.234Z,88
2017-08-05T04:19:01.955Z,88
2017-08-05T04:20:02.683Z,88
2017-08-05T04:21:03.396Z,89
2017-08-05T04:22:04.119Z,89
2017-08-05T04:23:04.843Z,89
2017-08-05T04:24:05.566Z,88
2017-08-05T04:25:06.289Z,88
2017-08-05T04:26:07.007Z,88
2017-08-05T04:27:07.732Z,89
2017-08-05T04:28:08.453Z,89
2017-08-05T04:29:09.189Z,89
2017-08-05T04:30:09.897Z,88
2017-08-05T04:31:10.647Z,89
2017-08-05T04:32:11.367Z,88
2017-08-05T04:33:12.088Z,89
2017-08-05T04:34:12.836Z,88
2017-08-05T04:35:13.578Z,88
2017-08-05T04:36:14.303Z,88
2017-08-05T04:37:15.021Z,88
2017-08-05T04:38:15.749Z,88
2017-08-05T04:39:16.489Z,89
2017-08-05T04:40:17.213Z,88
2017-08-05T04:41:17.938Z,89
2017-08-05T04:42:18.684Z,89
2017-08-05T04:43:19.410Z,89
2017-08-05T04:44:20.131Z,88
2017-08-05T04:45:20.852Z,89
2017-08-05T04:46:21.575Z,89
2017-08-05T04:47:22.299Z,88
2017-08-05T04:48:23.024Z,88
2017-08-05T04:49:23.772Z,89
2017-08-05T04:50:24.496Z,88
2017-08-05T04:51:25.217Z,89
2017-08-05T04:52:26.190Z,89
2017-08-05T04:53:26.935Z,89
2017-08-05T04:54:27.657Z,89
2017-08-05T04:55:28.384Z,89
2017-08-05T04:56:29.108Z,90
2017-08-05T04:57:29.830Z,89
2017-08-05T04:58:30.551Z,89
2017-08-05T04:59:31.275Z,89
2017-08-05T05:00:31.998Z,89
2017-08-05T05:01:32.720Z,90
2017-08-05T05:02:33.467Z,90
2017-08-05T05:03:34.192Z,89
2017-08-05T05:04:34.916Z,89
2017-08-05T05:05:35.642Z,90
2017-08-05T05:06:36.367Z,90
2017-08-05T05:07:37.114Z,89
2017-08-05T05:08:37.835Z,89
2017-08-05T05:09:38.558Z,90
2017-08-05T05:10:39.304Z,89
2017-08-05T05:11:40.029Z,91
2017-08-05T05:12:40.750Z,91
2017-08-05T05:13:41.474Z,90
2017-08-05T05:14:42.201Z,90
2017-08-05T05:15:42.926Z,90
2017-08-05T05:16:43.652Z,91
2017-08-05T05:17:44.378Z,91
2017-08-05T05:18:45.120Z,91
2017-08-05T05:19:45.864Z,92
2017-08-05T05:20:46.588Z,92
2017-08-05T05:21:47.332Z,92
2017-08-05T05:22:48.056Z,92
2017-08-05T05:23:48.779Z,93
2017-08-05T05:24:49.523Z,93
2017-08-05T05:25:50.251Z,93
2017-08-05T05:26:50.991Z,94
2017-08-05T05:27:51.719Z,94
2017-08-05T05:28:52.440Z,95
2017-08-05T05:29:53.164Z,96
2017-08-05T05:30:53.909Z,96
2017-08-05T05:31:54.632Z,97
2017-08-05T05:32:55.375Z,98
2017-08-05T05:33:56.095Z,99
2017-08-05T05:34:56.840Z,100
2017-08-05T05:35:57.586Z,100
2017-08-05T05:36:58.313Z,100
2017-08-05T05:37:59.039Z,100
2017-08-05T05:38:59.764Z,100
2017-08-05T05:40:00.506Z,100
2017-08-05T05:41:01.232Z,100
2017-08-05T05:42:01.954Z,100
2017-08-05T05:43:02.684Z,100
2017-08-05T05:44:03.424Z,100
2017-08-05T05:45:04.150Z,100
2017-08-05T05:46:04.894Z,100
2017-08-05T05:47:05.619Z,100
2017-08-05T05:48:06.343Z,100
2017-08-05T05:49:07.069Z,100
2017-08-05T05:50:07.793Z,100
2017-08-05T05:51:08.514Z,100
2017-08-05T05:52:09.237Z,100
2017-08-05T05:53:09.982Z,100
2017-08-05T05:54:10.707Z,100
2017-08-05T05:55:11.434Z,100
2017-08-05T05:56:12.156Z,100
2017-08-05T05:57:12.883Z,100
2017-08-05T05:58:13.604Z,100
2017-08-05T05:59:14.332Z,100
2017-08-05T06:00:15.081Z,100
2017-08-05T06:01:15.802Z,100
2017-08-05T06:02:16.527Z,100
2017-08-05T06:03:17.254Z,100
2017-08-05T06:04:18.003Z,100
2017-08-05T06:05:18.728Z,100
2017-08-05T06:06:19.448Z,100
2017-08-05T06:07:20.174Z,100
2017-08-05T06:08:20.903Z,100
2017-08-05T06:09:21.623Z,100
2017-08-05T06:10:22.368Z,100
2017-08-05T06:11:23.094Z,100
2017-08-05T06:12:23.815Z,100
2017-08-05T06:13:24.542Z,100
2017-08-05T06:14:25.291Z,100
2017-08-05T06:15:26.013Z,100
2017-08-05T06:16:26.740Z,100
2017-08-05T06:17:27.468Z,100
2017-08-05T06:18:28.214Z,100
2017-08-05T06:19:28.950Z,100
2017-08-05T06:20:29.674Z,100
2017-08-05T06:21:30.397Z,100
2017-08-05T06:22:31.130Z,100
2017-08-05T06:23:31.875Z,100
2017-08-05T06:24:32.604Z,100
2017-08-05T06:25:33.331Z,100
2017-08-05T06:26:34.062Z,100
2017-08-05T06:27:34.784Z,100
2017-08-05T06:28:35.537Z,100
2017-08-05T06:29:36.262Z,100
2017-08-05T06:30:36.988Z,100
2017-08-05T06:31:37.719Z,100
2017-08-05T06:32:38.446Z,100
2017-08-05T06:33:39.191Z,100
2017-08-05T06:34:39.919Z,100
2017-08-05T06:35:40.652Z,100
2017-08-05T06:36:41.376Z,100
2017-08-05T06:37:42.100Z,100
2017-08-05T06:38:42.829Z,100
2017-08-05T06:39:43.553Z,100
2017-08-05T06:40:44.284Z,100
2017-08-05T06:41:45.036Z,100
2017-08-05T06:42:45.758Z,100
2017-08-05T06:43:46.485Z,100
2017-08-05T06:44:47.232Z,100
2017-08-05T06:45:47.956Z,100
2017-08-05T06:46:48.678Z,100
2017-08-05T06:47:49.406Z,100
2017-08-05T06:48:50.132Z,100
2017-08-05T06:49:50.879Z,100
2017-08-05T06:50:51.602Z,100
2017-08-05T06:51:52.350Z,100
2017-08-05T06:52:53.079Z,100
2017-08-05T06:53:53.801Z,100
2017-08-05T06:54:54.525Z,100
2017-08-05T06:55:55.272Z,100
2017-08-05T06:56:55.998Z,100
2017-08-05T06:57:56.729Z,100
2017-08-05T06:58:57.450Z,100
2017-08-05T06:59:58.179Z,100
2017-08-05T07:00:58.926Z,100
2017-08-05T07:01:59.672Z,100
2017-08-05T07:03:00.401Z,100
2017-08-05T07:04:01.128Z,100
2017-08-05T07:05:01.853Z,100
2017-08-05T07:06:02.580Z,100
2017-08-05T07:07:03.307Z,100
2017-08-05T07:08:04.032Z,100
2017-08-05T07:09:04.753Z,100
2017-08-05T07:10:05.474Z,100
2017-08-05T07:11:06.202Z,100
2017-08-05T07:12:06.930Z,100
2017-08-05T07:13:07.653Z,100
2017-08-05T07:14:08.379Z,100
2017-08-05T07:15:09.106Z,100
2017-08-05T07:16:09.833Z,100
2017-08-05T07:17:10.560Z,100
2017-08-05T07:18:11.283Z,100
2017-08-05T07:19:12.013Z,100
2017-08-05T07:20:12.739Z,100
2017-08-05T07:21:13.486Z,100
2017-08-05T07:22:14.212Z,100
2017-08-05T07:23:14.959Z,100
2017-08-05T07:24:15.707Z,100
2017-08-05T07:25:16.427Z,100
2017-08-05T07:26:17.155Z,100
2017-08-05T07:27:17.881Z,100
2017-08-05T07:28:18.608Z,100
2017-08-05T07:29:19.357Z,100
2017-08-05T07:30:20.082Z,100
2017-08-05T07:31:20.811Z,100
2017-08-05T07:32:21.533Z,100
2017-08-05T07:33:22.279Z,100
2017-08-05T07:34:23.006Z,100
2017-08-05T07:35:23.756Z,100
2017-08-05T07:36:24.505Z,100
2017-08-05T07:37:25.257Z,100
2017-08-05T07:38:25.980Z,100
2017-08-05T07:39:26.710Z,100
2017-08-05T07:40:27.437Z,100
2017-08-05T07:41:28.164Z,100
2017-08-05T07:42:28.891Z,100
2017-08-05T07:43:29.620Z,100
2017-08-05T07:44:30.370Z,100
2017-08-05T07:45:31.095Z,100
2017-08-05T07:46:31.821Z,100
2017-08-05T07:47:32.572Z,100
2017-08-05T07:48:33.300Z,100
2017-08-05T07:49:34.051Z,100
2017-08-05T07:50:34.802Z,100
2017-08-05T07:51:35.527Z,100
2017-08-05T07:52:36.277Z,100
2017-08-05T07:53:37.030Z,100
2017-08-05T07:54:37.756Z,100
2017-08-05T07:55:38.503Z,100
2017-08-05T07:56:39.228Z,100
2017-08-05T07:57:39.960Z,100
2017-08-05T07:58:40.687Z,100
2017-08-05T07:59:41.440Z,100
2017-08-05T08:00:42.162Z,100
2017-08-05T08:01:42.892Z,100
2017-08-05T08:02:43.631Z,100
2017-08-05T08:03:44.377Z,100
2017-08-05T08:04:45.100Z,100
2017-08-05T08:05:45.823Z,100
2017-08-05T08:06:46.555Z,100
2017-08-05T08:07:47.279Z,100
2017-08-05T08:08:48.003Z,100
2017-08-05T08:09:48.752Z,100
2017-08-05T08:10:49.479Z,100
2017-08-05T08:11:50.226Z,100
2017-08-05T08:12:50.960Z,100
2017-08-05T08:13:51.685Z,100
2017-08-05T08:14:52.411Z,100
2017-08-05T08:15:53.137Z,100
2017-08-05T08:16:53.863Z,100
2017-08-05T08:17:54.595Z,100
2017-08-05T08:18:55.344Z,100
2017-08-05T08:19:56.074Z,100
2017-08-05T08:20:56.795Z,100
2017-08-05T08:21:57.547Z,100
2017-08-05T08:22:58.271Z,100
2017-08-05T08:23:59.018Z,100
2017-08-05T08:24:59.745Z,100
2017-08-05T08:26:00.472Z,100
2017-08-05T08:27:01.204Z,100
2017-08-05T08:28:01.926Z,100
2017-08-05T08:29:02.653Z,100
2017-08-05T08:30:03.380Z,100
2017-08-05T08:31:04.110Z,100
2017-08-05T08:32:04.856Z,100
2017-08-05T08:33:05.587Z,100
2017-08-05T08:34:06.334Z,100
2017-08-05T08:35:07.064Z,100
2017-08-05T08:36:07.790Z,100
2017-08-05T08:37:08.524Z,100
2017-08-05T08:38:09.249Z,100
2017-08-05T08:39:09.979Z,100
2017-08-05T08:40:10.710Z,100
2017-08-05T08:41:11.435Z,100
2017-08-05T08:42:12.165Z,100
2017-08-05T08:43:12.915Z,100
2017-08-05T08:44:13.661Z,100
2017-08-05T08:45:14.390Z,100
2017-08-05T08:46:15.118Z,100
2017-08-05T08:47:15.846Z,100
2017-08-05T08:48:16.575Z,100
2017-08-05T08:49:17.305Z,100
2017-08-05T08:50:18.031Z,100
2017-08-05T08:51:18.759Z,100
2017-08-05T08:52:19.489Z,100
2017-08-05T08:53:20.218Z,100
2017-08-05T08:54:20.950Z,100
2017-08-05T08:55:21.676Z,100
2017-08-05T08:56:22.403Z,100
2017-08-05T08:57:23.135Z,100
2017-08-05T08:58:23.861Z,100
2017-08-05T08:59:24.591Z,100
2017-08-05T09:00:25.321Z,100
2017-08-05T09:01:26.052Z,100
2017-08-05T09:02:26.778Z,100
2017-08-05T09:03:27.529Z,100
2017-08-05T09:04:28.262Z,100
2017-08-05T09:05:28.988Z,100
2017-08-05T09:06:29.721Z,100
2017-08-05T09:07:30.446Z,100
2017-08-05T09:08:31.174Z,100
2017-08-05T09:09:31.902Z,100
2017-08-05T09:10:32.636Z,100
2017-08-05T09:11:33.383Z,100
2017-08-05T09:12:34.091Z,100
2017-08-05T09:13:34.825Z,100
2017-08-05T09:14:35.549Z,99
2017-08-05T09:15:36.281Z,100
2017-08-05T09:16:37.035Z,100
2017-08-05T09:17:37.763Z,100
2017-08-05T09:18:38.495Z,100
2017-08-05T09:19:39.226Z,100
2017-08-05T09:20:39.976Z,96
2017-08-05T09:21:40.730Z,96
2017-08-05T09:22:41.482Z,99
2017-08-05T09:23:42.210Z,100
2017-08-05T09:24:42.935Z,100
2017-08-05T09:25:43.667Z,95
2017-08-05T09:26:44.393Z,96
2017-08-05T09:27:45.121Z,96
2017-08-05T09:28:45.850Z,98
2017-08-05T09:29:46.581Z,99
2017-08-05T09:30:47.307Z,98
2017-08-05T09:31:48.034Z,98
2017-08-05T09:32:48.785Z,100
2017-08-05T09:33:49.513Z,100
2017-08-05T09:34:50.261Z,99
2017-08-05T09:35:50.993Z,100
2017-08-05T09:36:51.718Z,100
2017-08-05T09:37:52.445Z,100
2017-08-05T09:38:53.175Z,100
2017-08-05T09:39:53.926Z,100
2017-08-05T09:40:54.656Z,99
2017-08-05T09:41:55.383Z,100
2017-08-05T09:42:56.135Z,100
2017-08-05T09:43:56.862Z,100
2017-08-05T09:44:57.590Z,100
2017-08-05T09:45:58.321Z,100
2017-08-05T09:46:59.046Z,100
2017-08-05T09:47:59.777Z,100
2017-08-05T09:49:00.525Z,100
2017-08-05T09:50:01.256Z,100
2017-08-05T09:51:01.988Z,100
2017-08-05T09:52:02.715Z,100
2017-08-05T09:53:03.440Z,100
2017-08-05T09:54:04.173Z,100
2017-08-05T09:55:04.896Z,100
2017-08-05T09:56:05.629Z,100
2017-08-05T09:57:06.357Z,100
2017-08-05T09:58:07.083Z,100
2017-08-05T09:59:07.837Z,99
2017-08-05T10:00:08.569Z,100
2017-08-05T10:01:09.296Z,100
2017-08-05T10:02:10.026Z,100
2017-08-05T10:03:10.757Z,100
2017-08-05T10:04:11.489Z,100
2017-08-05T10:05:12.218Z,99
2017-08-05T10:06:12.946Z,96
2017-08-05T10:07:13.680Z,97
2017-08-05T10:08:14.432Z,97
2017-08-05T10:09:15.184Z,97
2017-08-05T10:10:15.938Z,96
2017-08-05T10:11:16.693Z,95
2017-08-05T10:12:17.421Z,95
2017-08-05T10:13:18.175Z,93
2017-08-05T10:14:18.906Z,93
2017-08-05T10:15:19.634Z,95
2017-08-05T10:16:20.364Z,95
2017-08-05T10:17:21.098Z,94
2017-08-05T10:18:21.824Z,95
2017-08-05T10:19:22.554Z,96
2017-08-05T10:20:23.306Z,95
2017-08-05T10:21:24.061Z,91
2017-08-05T10:22:24.793Z,91
2017-08-05T10:23:25.529Z,93
2017-08-05T10:24:26.285Z,90
2017-08-05T10:25:27.018Z,89
2017-08-05T10:26:27.756Z,91
2017-08-05T10:27:28.505Z,88
2017-08-05T10:28:29.239Z,89
2017-08-05T10:29:29.970Z,92
2017-08-05T10:30:30.700Z,93
2017-08-05T10:31:31.456Z,89
2017-08-05T10:32:32.210Z,89
2017-08-05T10:33:32.968Z,92
2017-08-05T10:34:33.704Z,91
2017-08-05T10:35:34.431Z,91
2017-08-05T10:36:35.188Z,89
2017-08-05T10:37:35.920Z,93
2017-08-05T10:38:36.675Z,91
2017-08-05T10:39:37.427Z,89
2017-08-05T10:40:38.163Z,92
2017-08-05T10:41:38.928Z,90
2017-08-05T10:42:39.651Z,89
2017-08-05T10:43:40.417Z,89
2017-08-05T10:44:41.156Z,88
2017-08-05T10:45:41.878Z,89
2017-08-05T10:46:42.612Z,88
2017-08-05T10:47:43.365Z,90
2017-08-05T10:48:44.097Z,89
2017-08-05T10:49:44.825Z,88
2017-08-05T10:50:45.556Z,89
2017-08-05T10:51:46.305Z,91
2017-08-05T10:52:47.042Z,91
2017-08-05T10:53:47.772Z,88
2017-08-05T10:54:48.497Z,89
2017-08-05T10:55:49.230Z,89
2017-08-05T10:56:49.964Z,89
2017-08-05T10:57:50.695Z,89
2017-08-05T10:58:51.425Z,90
2017-08-05T10:59:52.157Z,93
2017-08-05T11:00:52.891Z,91
2017-08-05T11:01:53.623Z,91
2017-08-05T11:02:54.352Z,91
2017-08-05T11:03:55.085Z,91
2017-08-05T11:04:55.817Z,91
2017-08-05T11:05:56.569Z,92
2017-08-05T11:06:57.323Z,94
2017-08-05T11:07:58.055Z,92
2017-08-05T11:08:58.785Z,92
2017-08-05T11:09:59.518Z,93
2017-08-05T11:11:00.262Z,90
2017-08-05T11:12:00.993Z,91
2017-08-05T11:13:01.723Z,92
2017-08-05T11:14:02.477Z,91
2017-08-05T11:15:03.207Z,93
2017-08-05T11:16:03.944Z,94
2017-08-05T11:17:04.676Z,93
2017-08-05T11:18:05.408Z,93
2017-08-05T11:19:06.162Z,92
2017-08-05T11:20:06.894Z,93
2017-08-05T11:21:07.628Z,92
2017-08-05T11:22:08.356Z,92
2017-08-05T11:23:09.093Z,91
2017-08-05T11:24:09.820Z,93
2017-08-05T11:25:10.555Z,93
2017-08-05T11:26:11.286Z,92
2017-08-05T11:27:12.018Z,92
2017-08-05T11:28:12.752Z,92
2017-08-05T11:29:13.483Z,90
2017-08-05T11:30:14.214Z,92
2017-08-05T11:31:14.943Z,92
2017-08-05T11:32:15.672Z,91
2017-08-05T11:33:16.405Z,91
2017-08-05T11:34:17.162Z,92
2017-08-05T11:35:17.891Z,91
2017-08-05T11:36:18.646Z,93
2017-08-05T11:37:19.376Z,91
2017-08-05T11:38:20.115Z,91
2017-08-05T11:39:20.843Z,93
2017-08-05T11:40:21.574Z,91
2017-08-05T11:41:22.314Z,93
2017-08-05T11:42:23.068Z,92
2017-08-05T11:43:23.803Z,92
2017-08-05T11:44:24.534Z,92
2017-08-05T11:45:25.267Z,92
2017-08-05T11:46:26.020Z,92
2017-08-05T11:47:26.747Z,92
2017-08-05T11:48:27.486Z,93
2017-08-05T11:49:28.218Z,93
2017-08-05T11:50:28.959Z,94
2017-08-05T11:51:29.704Z,96
2017-08-05T11:52:30.438Z,94
2017-08-05T11:53:31.166Z,93
2017-08-05T11:54:31.899Z,94
2017-08-05T11:55:32.633Z,93
2017-08-05T11:56:33.362Z,91
2017-08-05T11:57:34.119Z,92
2017-08-05T11:58:34.853Z,93
2017-08-05T11:59:35.585Z,94
2017-08-05T12:00:36.317Z,94
2017-08-05T12:01:37.075Z,95
2017-08-05T12:02:37.808Z,93
2017-08-05T12:03:38.544Z,92
2017-08-05T12:04:39.285Z,89
2017-08-05T12:05:40.024Z,85
2017-08-05T12:06:40.768Z,84
2017-08-05T12:07:41.512Z,81
2017-08-05T12:08:42.255Z,79
2017-08-05T12:09:42.998Z,77
2017-08-05T12:10:43.739Z,77
2017-08-05T12:11:44.480Z,77
2017-08-05T12:12:45.221Z,78
2017-08-05T12:13:45.963Z,77
2017-08-05T12:14:46.724Z,75
2017-08-05T12:15:47.465Z,75
2017-08-05T12:16:48.206Z,73
2017-08-05T12:17:48.947Z,73
2017-08-05T12:18:49.687Z,75
2017-08-05T12:19:50.449Z,73
2017-08-05T12:20:51.187Z,74
2017-08-05T12:21:51.931Z,71
2017-08-05T12:22:52.672Z,73
2017-08-05T12:23:53.433Z,73
2017-08-05T12:24:54.180Z,74
2017-08-05T12:25:54.922Z,74
2017-08-05T12:26:55.665Z,72
2017-08-05T12:27:56.406Z,73
2017-08-05T12:28:57.150Z,72
2017-08-05T12:29:57.891Z,72
2017-08-05T12:30:58.633Z,71
2017-08-05T12:31:59.376Z,73
2017-08-05T12:33:00.120Z,72
2017-08-05T12:34:00.862Z,71
2017-08-05T12:35:01.602Z,68
2017-08-05T12:36:02.348Z,68
2017-08-05T12:37:03.090Z,68
2017-08-05T12:38:03.832Z,66
2017-08-05T12:39:04.575Z,65
2017-08-05T12:40:05.319Z,65
2017-08-05T12:41:06.059Z,67
2017-08-05T12:42:06.833Z,67
2017-08-05T12:43:07.603Z,67
2017-08-05T12:44:08.343Z,65
2017-08-05T12:45:09.095Z,64
2017-08-05T12:46:09.862Z,63
2017-08-05T12:47:10.606Z,62
2017-08-05T12:48:11.348Z,61
2017-08-05T12:49:12.099Z,60
2017-08-05T12:50:12.847Z,60
2017-08-05T12:51:13.598Z,60
2017-08-05T12:52:14.375Z,61
2017-08-05T12:53:15.127Z,62
2017-08-05T12:54:15.897Z,60
2017-08-05T12:55:16.650Z,58
2017-08-05T12:56:17.401Z,57
2017-08-05T12:57:18.146Z,57
2017-08-05T12:58:18.921Z,59
2017-08-05T12:59:19.672Z,61
2017-08-05T13:00:20.429Z,62
2017-08-05T13:01:21.174Z,63
2017-08-05T13:02:21.917Z,63
2017-08-05T13:03:22.666Z,59
2017-08-05T13:04:23.432Z,59
2017-08-05T13:05:24.202Z,58
2017-08-05T13:06:24.968Z,60
2017-08-05T13:07:25.716Z,59
2017-08-05T13:08:26.454Z,60
2017-08-05T13:09:27.201Z,61
2017-08-05T13:10:27.943Z,59
2017-08-05T13:11:28.682Z,60
2017-08-05T13:12:29.427Z,59
2017-08-05T13:13:30.166Z,60
2017-08-05T13:14:30.907Z,60
2017-08-05T13:15:31.649Z,58
2017-08-05T13:16:32.392Z,57
2017-08-05T13:17:33.133Z,57
2017-08-05T13:18:33.876Z,58
2017-08-05T13:19:34.637Z,60
2017-08-05T13:20:35.375Z,60
2017-08-05T13:21:36.141Z,59
2017-08-05T13:22:36.903Z,58
2017-08-05T13:23:37.647Z,57
2017-08-05T13:24:38.390Z,54
2017-08-05T13:25:39.150Z,55
2017-08-05T13:26:39.895Z,56
2017-08-05T13:27:40.639Z,57
2017-08-05T13:28:41.410Z,56
2017-08-05T13:29:42.154Z,56
2017-08-05T13:30:42.919Z,57
2017-08-05T13:31:43.663Z,56
2017-08-05T13:32:44.409Z,57
2017-08-05T13:33:45.154Z,57
2017-08-05T13:34:45.898Z,57
2017-08-05T13:35:46.666Z,56
2017-08-05T13:36:47.409Z,56
2017-08-05T13:37:48.152Z,58
2017-08-05T13:38:48.893Z,59
2017-08-05T13:39:49.631Z,59
2017-08-05T13:40:50.366Z,61
2017-08-05T13:41:51.129Z,62
2017-08-05T13:42:51.866Z,62
2017-08-05T13:43:52.607Z,61
2017-08-05T13:44:53.347Z,62
2017-08-05T13:45:54.087Z,61
2017-08-05T13:46:54.823Z,59
2017-08-05T13:47:55.582Z,59
2017-08-05T13:48:56.303Z,58
2017-08-05T13:49:57.046Z,60
2017-08-05T13:50:57.788Z,61
2017-08-05T13:51:58.546Z,62
2017-08-05T13:52:59.307Z,60
2017-08-05T13:54:00.044Z,58
2017-08-05T13:55:00.785Z,57
2017-08-05T13:56:01.519Z,59
2017-08-05T13:57:02.282Z,59
2017-08-05T13:58:03.020Z,59
2017-08-05T13:59:03.758Z,60
2017-08-05T14:00:04.497Z,61
2017-08-05T14:01:05.238Z,61
2017-08-05T14:02:05.974Z,63
2017-08-05T14:03:06.710Z,63
2017-08-05T14:04:07.444Z,65
2017-08-05T14:05:08.179Z,65
2017-08-05T14:06:08.916Z,68
2017-08-05T14:07:09.649Z,71
2017-08-05T14:08:10.399Z,71
2017-08-05T14:09:11.132Z,72
2017-08-05T14:10:11.865Z,72
2017-08-05T14:11:12.618Z,73
2017-08-05T14:12:13.349Z,75
2017-08-05T14:13:14.102Z,75
2017-08-05T14:14:14.836Z,76
2017-08-05T14:15:15.562Z,77
2017-08-05T14:16:16.303Z,77
2017-08-05T14:17:17.068Z,78